sensor_id;sensor_type;location;lat;lon;timestamp;P1;durP1;ratioP1;P2;durP2;ratioP2
50815;SDS011;39717;47.324;8.788;2023-01-09T00:02:10;16.23;;;12.03;;
50815;SDS011;39717;47.324;8.788;2023-01-09T00:04:36;16.63;;;12.40;;
50815;SDS011;39717;47.324;8.788;2023-01-09T00:07:02;16.53;;;12.07;;
50815;SDS011;39717;47.324;8.788;2023-01-09T00:09:29;17.73;;;13.03;;
50815;SDS011;39717;47.324;8.788;2023-01-09T00:11:55;19.17;;;14.20;;
50815;SDS011;39717;47.324;8.788;2023-01-09T00:14:22;18.00;;;13.10;;
50815;SDS011;39717;47.324;8.788;2023-01-09T00:16:48;14.70;;;11.13;;
50815;SDS011;39717;47.324;8.788;2023-01-09T00:19:14;10.53;;;8.30;;
50815;SDS011;39717;47.324;8.788;2023-01-09T00:21:40;12.03;;;8.97;;
50815;SDS011;39717;47.324;8.788;2023-01-09T00:24:06;12.87;;;9.40;;
50815;SDS011;39717;47.324;8.788;2023-01-09T00:26:33;14.57;;;10.93;;
50815;SDS011;39717;47.324;8.788;2023-01-09T00:28:59;13.30;;;10.07;;
50815;SDS011;39717;47.324;8.788;2023-01-09T00:31:26;14.43;;;9.60;;
50815;SDS011;39717;47.324;8.788;2023-01-09T00:33:58;14.60;;;10.57;;
50815;SDS011;39717;47.324;8.788;2023-01-09T00:36:25;15.70;;;11.00;;
50815;SDS011;39717;47.324;8.788;2023-01-09T00:38:51;14.13;;;10.63;;
50815;SDS011;39717;47.324;8.788;2023-01-09T00:41:28;14.97;;;11.13;;
50815;SDS011;39717;47.324;8.788;2023-01-09T00:44:00;13.63;;;10.23;;
50815;SDS011;39717;47.324;8.788;2023-01-09T00:46:29;12.53;;;8.17;;
50815;SDS011;39717;47.324;8.788;2023-01-09T00:48:56;12.60;;;8.80;;
50815;SDS011;39717;47.324;8.788;2023-01-09T00:51:22;13.63;;;9.53;;
50815;SDS011;39717;47.324;8.788;2023-01-09T00:53:49;11.60;;;8.50;;
50815;SDS011;39717;47.324;8.788;2023-01-09T00:56:16;12.47;;;8.87;;
50815;SDS011;39717;47.324;8.788;2023-01-09T00:58:43;11.77;;;8.73;;
50815;SDS011;39717;47.324;8.788;2023-01-09T01:01:09;12.33;;;8.67;;
50815;SDS011;39717;47.324;8.788;2023-01-09T01:03:36;11.30;;;8.70;;
50815;SDS011;39717;47.324;8.788;2023-01-09T01:06:02;12.47;;;8.60;;
50815;SDS011;39717;47.324;8.788;2023-01-09T01:08:47;12.17;;;8.63;;
50815;SDS011;39717;47.324;8.788;2023-01-09T01:11:13;12.23;;;8.43;;
50815;SDS011;39717;47.324;8.788;2023-01-09T01:13:40;9.17;;;6.90;;
50815;SDS011;39717;47.324;8.788;2023-01-09T01:16:07;9.60;;;6.70;;
50815;SDS011;39717;47.324;8.788;2023-01-09T01:18:34;9.90;;;7.33;;
50815;SDS011;39717;47.324;8.788;2023-01-09T01:21:04;7.83;;;5.80;;
50815;SDS011;39717;47.324;8.788;2023-01-09T01:23:30;7.60;;;5.40;;
50815;SDS011;39717;47.324;8.788;2023-01-09T01:25:56;6.70;;;5.13;;
50815;SDS011;39717;47.324;8.788;2023-01-09T01:28:22;6.87;;;5.13;;
50815;SDS011;39717;47.324;8.788;2023-01-09T01:30:48;6.47;;;4.77;;
50815;SDS011;39717;47.324;8.788;2023-01-09T01:33:14;5.10;;;4.30;;
50815;SDS011;39717;47.324;8.788;2023-01-09T01:35:40;5.80;;;4.77;;
50815;SDS011;39717;47.324;8.788;2023-01-09T01:38:06;4.30;;;3.30;;
50815;SDS011;39717;47.324;8.788;2023-01-09T01:40:32;4.73;;;3.80;;
50815;SDS011;39717;47.324;8.788;2023-01-09T01:42:58;6.80;;;4.83;;
50815;SDS011;39717;47.324;8.788;2023-01-09T01:45:25;5.20;;;4.27;;
50815;SDS011;39717;47.324;8.788;2023-01-09T01:50:51;5.33;;;4.37;;
50815;SDS011;39717;47.324;8.788;2023-01-09T01:53:20;7.17;;;4.07;;
50815;SDS011;39717;47.324;8.788;2023-01-09T01:58:25;4.50;;;2.83;;
50815;SDS011;39717;47.324;8.788;2023-01-09T02:00:52;4.10;;;3.43;;
50815;SDS011;39717;47.324;8.788;2023-01-09T02:03:19;5.20;;;3.60;;
50815;SDS011;39717;47.324;8.788;2023-01-09T02:05:46;3.57;;;3.23;;
50815;SDS011;39717;47.324;8.788;2023-01-09T02:08:13;2.27;;;1.93;;
50815;SDS011;39717;47.324;8.788;2023-01-09T02:10:40;1.93;;;1.73;;
50815;SDS011;39717;47.324;8.788;2023-01-09T02:13:06;1.47;;;1.37;;
50815;SDS011;39717;47.324;8.788;2023-01-09T02:15:42;3.83;;;2.23;;
50815;SDS011;39717;47.324;8.788;2023-01-09T02:18:17;2.20;;;1.53;;
50815;SDS011;39717;47.324;8.788;2023-01-09T02:20:52;2.00;;;1.80;;
50815;SDS011;39717;47.324;8.788;2023-01-09T02:28:21;0.40;;;0.40;;
50815;SDS011;39717;47.324;8.788;2023-01-09T02:33:22;1.27;;;1.17;;
50815;SDS011;39717;47.324;8.788;2023-01-09T02:38:27;3.33;;;2.40;;
50815;SDS011;39717;47.324;8.788;2023-01-09T02:43:39;1.43;;;1.33;;
50815;SDS011;39717;47.324;8.788;2023-01-09T02:46:10;1.60;;;1.50;;
50815;SDS011;39717;47.324;8.788;2023-01-09T02:48:44;2.50;;;2.30;;
50815;SDS011;39717;47.324;8.788;2023-01-09T02:51:32;3.90;;;3.27;;
50815;SDS011;39717;47.324;8.788;2023-01-09T02:54:26;0.80;;;0.80;;
50815;SDS011;39717;47.324;8.788;2023-01-09T02:56:53;1.50;;;1.40;;
50815;SDS011;39717;47.324;8.788;2023-01-09T02:59:28;1.30;;;0.40;;
50815;SDS011;39717;47.324;8.788;2023-01-09T03:04:58;0.40;;;0.40;;
50815;SDS011;39717;47.324;8.788;2023-01-09T03:07:40;0.30;;;0.30;;
50815;SDS011;39717;47.324;8.788;2023-01-09T03:10:14;1.27;;;0.40;;
50815;SDS011;39717;47.324;8.788;2023-01-09T03:12:40;0.60;;;0.20;;
50815;SDS011;39717;47.324;8.788;2023-01-09T03:15:08;0.20;;;0.20;;
50815;SDS011;39717;47.324;8.788;2023-01-09T03:17:44;1.90;;;0.30;;
50815;SDS011;39717;47.324;8.788;2023-01-09T03:20:13;0.20;;;0.20;;
50815;SDS011;39717;47.324;8.788;2023-01-09T03:25:36;0.20;;;0.20;;
50815;SDS011;39717;47.324;8.788;2023-01-09T03:28:03;0.23;;;0.23;;
50815;SDS011;39717;47.324;8.788;2023-01-09T03:30:30;0.37;;;0.20;;
50815;SDS011;39717;47.324;8.788;2023-01-09T03:32:56;0.40;;;0.23;;
50815;SDS011;39717;47.324;8.788;2023-01-09T03:35:23;0.20;;;0.20;;
50815;SDS011;39717;47.324;8.788;2023-01-09T03:37:49;0.20;;;0.20;;
50815;SDS011;39717;47.324;8.788;2023-01-09T03:40:19;0.87;;;0.20;;
50815;SDS011;39717;47.324;8.788;2023-01-09T03:42:45;0.23;;;0.23;;
50815;SDS011;39717;47.324;8.788;2023-01-09T03:45:12;0.20;;;0.20;;
50815;SDS011;39717;47.324;8.788;2023-01-09T03:47:38;0.30;;;0.30;;
50815;SDS011;39717;47.324;8.788;2023-01-09T03:50:04;0.10;;;0.10;;
50815;SDS011;39717;47.324;8.788;2023-01-09T03:52:31;0.20;;;0.20;;
50815;SDS011;39717;47.324;8.788;2023-01-09T03:55:00;0.20;;;0.20;;
50815;SDS011;39717;47.324;8.788;2023-01-09T03:57:26;0.23;;;0.23;;
50815;SDS011;39717;47.324;8.788;2023-01-09T03:59:52;0.30;;;0.30;;
50815;SDS011;39717;47.324;8.788;2023-01-09T04:02:18;0.10;;;0.10;;
50815;SDS011;39717;47.324;8.788;2023-01-09T04:04:44;0.30;;;0.30;;
50815;SDS011;39717;47.324;8.788;2023-01-09T04:07:10;0.20;;;0.20;;
50815;SDS011;39717;47.324;8.788;2023-01-09T04:09:36;0.10;;;0.10;;
50815;SDS011;39717;47.324;8.788;2023-01-09T04:12:02;0.50;;;0.43;;
50815;SDS011;39717;47.324;8.788;2023-01-09T04:14:28;0.20;;;0.20;;
50815;SDS011;39717;47.324;8.788;2023-01-09T04:16:54;0.33;;;0.33;;
50815;SDS011;39717;47.324;8.788;2023-01-09T04:19:20;0.30;;;0.30;;
50815;SDS011;39717;47.324;8.788;2023-01-09T04:21:46;0.37;;;0.37;;
50815;SDS011;39717;47.324;8.788;2023-01-09T04:24:13;0.20;;;0.20;;
50815;SDS011;39717;47.324;8.788;2023-01-09T04:26:39;0.20;;;0.20;;
50815;SDS011;39717;47.324;8.788;2023-01-09T04:29:05;0.30;;;0.30;;
50815;SDS011;39717;47.324;8.788;2023-01-09T04:31:31;0.20;;;0.20;;
50815;SDS011;39717;47.324;8.788;2023-01-09T04:33:57;0.33;;;0.33;;
50815;SDS011;39717;47.324;8.788;2023-01-09T04:36:23;0.20;;;0.20;;
50815;SDS011;39717;47.324;8.788;2023-01-09T04:38:49;0.30;;;0.30;;
50815;SDS011;39717;47.324;8.788;2023-01-09T04:41:15;0.30;;;0.30;;
50815;SDS011;39717;47.324;8.788;2023-01-09T04:44:02;0.30;;;0.30;;
50815;SDS011;39717;47.324;8.788;2023-01-09T04:46:28;0.30;;;0.30;;
50815;SDS011;39717;47.324;8.788;2023-01-09T04:48:54;0.97;;;0.50;;
50815;SDS011;39717;47.324;8.788;2023-01-09T04:51:20;0.40;;;0.40;;
50815;SDS011;39717;47.324;8.788;2023-01-09T04:53:46;0.53;;;0.40;;
50815;SDS011;39717;47.324;8.788;2023-01-09T04:56:12;0.40;;;0.40;;
50815;SDS011;39717;47.324;8.788;2023-01-09T04:58:38;0.50;;;0.50;;
50815;SDS011;39717;47.324;8.788;2023-01-09T05:01:04;2.37;;;0.60;;
50815;SDS011;39717;47.324;8.788;2023-01-09T05:03:30;0.53;;;0.43;;
50815;SDS011;39717;47.324;8.788;2023-01-09T05:05:56;1.03;;;0.40;;
50815;SDS011;39717;47.324;8.788;2023-01-09T05:08:22;0.20;;;0.20;;
50815;SDS011;39717;47.324;8.788;2023-01-09T05:10:48;0.87;;;0.53;;
50815;SDS011;39717;47.324;8.788;2023-01-09T05:13:14;0.20;;;0.20;;
50815;SDS011;39717;47.324;8.788;2023-01-09T05:15:39;0.30;;;0.30;;
50815;SDS011;39717;47.324;8.788;2023-01-09T05:18:05;0.57;;;0.50;;
50815;SDS011;39717;47.324;8.788;2023-01-09T05:20:31;0.37;;;0.37;;
50815;SDS011;39717;47.324;8.788;2023-01-09T05:22:56;0.60;;;0.60;;
50815;SDS011;39717;47.324;8.788;2023-01-09T05:25:22;0.37;;;0.37;;
50815;SDS011;39717;47.324;8.788;2023-01-09T05:27:48;0.30;;;0.30;;
50815;SDS011;39717;47.324;8.788;2023-01-09T05:30:13;0.50;;;0.50;;
50815;SDS011;39717;47.324;8.788;2023-01-09T05:32:39;0.93;;;0.60;;
50815;SDS011;39717;47.324;8.788;2023-01-09T05:35:05;1.27;;;0.40;;
50815;SDS011;39717;47.324;8.788;2023-01-09T05:37:31;0.50;;;0.50;;
50815;SDS011;39717;47.324;8.788;2023-01-09T05:39:57;0.97;;;0.30;;
50815;SDS011;39717;47.324;8.788;2023-01-09T05:42:22;1.10;;;0.50;;
50815;SDS011;39717;47.324;8.788;2023-01-09T05:44:48;0.60;;;0.23;;
50815;SDS011;39717;47.324;8.788;2023-01-09T05:47:14;0.37;;;0.37;;
50815;SDS011;39717;47.324;8.788;2023-01-09T05:49:39;0.73;;;0.30;;
50815;SDS011;39717;47.324;8.788;2023-01-09T05:52:05;0.30;;;0.30;;
50815;SDS011;39717;47.324;8.788;2023-01-09T05:54:32;1.47;;;0.60;;
50815;SDS011;39717;47.324;8.788;2023-01-09T05:56:58;1.23;;;0.60;;
50815;SDS011;39717;47.324;8.788;2023-01-09T05:59:24;5.90;;;2.60;;
50815;SDS011;39717;47.324;8.788;2023-01-09T06:01:50;2.67;;;1.63;;
50815;SDS011;39717;47.324;8.788;2023-01-09T06:04:16;3.30;;;1.20;;
50815;SDS011;39717;47.324;8.788;2023-01-09T06:06:42;1.10;;;0.90;;
50815;SDS011;39717;47.324;8.788;2023-01-09T06:09:07;0.97;;;0.80;;
50815;SDS011;39717;47.324;8.788;2023-01-09T06:11:33;1.67;;;0.80;;
50815;SDS011;39717;47.324;8.788;2023-01-09T06:14:00;1.40;;;1.27;;
50815;SDS011;39717;47.324;8.788;2023-01-09T06:16:26;1.93;;;1.30;;
50815;SDS011;39717;47.324;8.788;2023-01-09T06:18:51;0.83;;;0.50;;
50815;SDS011;39717;47.324;8.788;2023-01-09T06:21:17;0.93;;;0.40;;
50815;SDS011;39717;47.324;8.788;2023-01-09T06:23:43;2.27;;;0.67;;
50815;SDS011;39717;47.324;8.788;2023-01-09T06:26:09;0.60;;;0.60;;
50815;SDS011;39717;47.324;8.788;2023-01-09T06:28:35;0.97;;;0.30;;
50815;SDS011;39717;47.324;8.788;2023-01-09T06:31:00;0.60;;;0.47;;
50815;SDS011;39717;47.324;8.788;2023-01-09T06:33:26;1.00;;;0.60;;
50815;SDS011;39717;47.324;8.788;2023-01-09T06:35:52;0.70;;;0.60;;
50815;SDS011;39717;47.324;8.788;2023-01-09T06:38:18;0.60;;;0.60;;
50815;SDS011;39717;47.324;8.788;2023-01-09T06:40:44;1.37;;;0.30;;
50815;SDS011;39717;47.324;8.788;2023-01-09T06:43:09;0.40;;;0.40;;
50815;SDS011;39717;47.324;8.788;2023-01-09T06:45:35;1.63;;;0.40;;
50815;SDS011;39717;47.324;8.788;2023-01-09T06:48:01;0.83;;;0.47;;
50815;SDS011;39717;47.324;8.788;2023-01-09T06:50:27;1.30;;;0.60;;
50815;SDS011;39717;47.324;8.788;2023-01-09T06:52:52;1.67;;;0.40;;
50815;SDS011;39717;47.324;8.788;2023-01-09T06:55:18;0.93;;;0.70;;
50815;SDS011;39717;47.324;8.788;2023-01-09T06:57:44;1.73;;;1.00;;
50815;SDS011;39717;47.324;8.788;2023-01-09T07:00:10;0.57;;;0.57;;
50815;SDS011;39717;47.324;8.788;2023-01-09T07:02:36;0.93;;;0.60;;
50815;SDS011;39717;47.324;8.788;2023-01-09T07:05:01;1.03;;;0.77;;
50815;SDS011;39717;47.324;8.788;2023-01-09T07:07:31;1.67;;;0.60;;
50815;SDS011;39717;47.324;8.788;2023-01-09T07:09:58;1.50;;;0.40;;
50815;SDS011;39717;47.324;8.788;2023-01-09T07:12:24;0.30;;;0.30;;
50815;SDS011;39717;47.324;8.788;2023-01-09T07:14:50;1.43;;;0.30;;
50815;SDS011;39717;47.324;8.788;2023-01-09T07:17:16;3.53;;;0.67;;
50815;SDS011;39717;47.324;8.788;2023-01-09T07:19:42;0.87;;;0.57;;
50815;SDS011;39717;47.324;8.788;2023-01-09T07:22:08;2.20;;;0.73;;
50815;SDS011;39717;47.324;8.788;2023-01-09T07:24:35;1.80;;;0.67;;
50815;SDS011;39717;47.324;8.788;2023-01-09T07:27:01;2.73;;;0.70;;
50815;SDS011;39717;47.324;8.788;2023-01-09T07:29:27;0.93;;;0.50;;
50815;SDS011;39717;47.324;8.788;2023-01-09T07:31:54;1.70;;;0.57;;
50815;SDS011;39717;47.324;8.788;2023-01-09T07:34:20;1.63;;;0.93;;
50815;SDS011;39717;47.324;8.788;2023-01-09T07:36:46;1.00;;;0.60;;
50815;SDS011;39717;47.324;8.788;2023-01-09T07:39:13;1.23;;;0.53;;
50815;SDS011;39717;47.324;8.788;2023-01-09T07:41:39;3.50;;;0.73;;
50815;SDS011;39717;47.324;8.788;2023-01-09T07:44:05;1.93;;;0.80;;
50815;SDS011;39717;47.324;8.788;2023-01-09T07:46:31;1.13;;;1.00;;
50815;SDS011;39717;47.324;8.788;2023-01-09T07:48:58;1.60;;;1.00;;
50815;SDS011;39717;47.324;8.788;2023-01-09T07:51:24;3.07;;;1.50;;
50815;SDS011;39717;47.324;8.788;2023-01-09T07:53:50;4.10;;;1.30;;
50815;SDS011;39717;47.324;8.788;2023-01-09T07:56:16;1.80;;;1.17;;
50815;SDS011;39717;47.324;8.788;2023-01-09T07:58:42;3.03;;;0.90;;
50815;SDS011;39717;47.324;8.788;2023-01-09T08:01:08;1.40;;;1.00;;
50815;SDS011;39717;47.324;8.788;2023-01-09T08:03:34;2.17;;;1.17;;
50815;SDS011;39717;47.324;8.788;2023-01-09T08:05:59;0.80;;;0.80;;
50815;SDS011;39717;47.324;8.788;2023-01-09T08:08:26;2.27;;;0.93;;
50815;SDS011;39717;47.324;8.788;2023-01-09T08:10:52;1.33;;;1.10;;
50815;SDS011;39717;47.324;8.788;2023-01-09T08:13:17;2.07;;;1.00;;
50815;SDS011;39717;47.324;8.788;2023-01-09T08:15:43;2.63;;;1.10;;
50815;SDS011;39717;47.324;8.788;2023-01-09T08:18:09;1.87;;;1.00;;
50815;SDS011;39717;47.324;8.788;2023-01-09T08:20:35;1.60;;;0.93;;
50815;SDS011;39717;47.324;8.788;2023-01-09T08:23:00;4.63;;;1.70;;
50815;SDS011;39717;47.324;8.788;2023-01-09T08:25:26;5.27;;;1.97;;
50815;SDS011;39717;47.324;8.788;2023-01-09T08:27:52;2.47;;;1.67;;
50815;SDS011;39717;47.324;8.788;2023-01-09T08:30:18;3.43;;;1.97;;
50815;SDS011;39717;47.324;8.788;2023-01-09T08:32:47;2.47;;;1.33;;
50815;SDS011;39717;47.324;8.788;2023-01-09T08:35:14;1.57;;;1.10;;
50815;SDS011;39717;47.324;8.788;2023-01-09T08:37:42;1.63;;;1.10;;
50815;SDS011;39717;47.324;8.788;2023-01-09T08:40:09;2.33;;;1.20;;
50815;SDS011;39717;47.324;8.788;2023-01-09T08:42:36;1.80;;;1.40;;
50815;SDS011;39717;47.324;8.788;2023-01-09T08:45:20;1.20;;;1.10;;
50815;SDS011;39717;47.324;8.788;2023-01-09T08:48:04;2.03;;;1.33;;
50815;SDS011;39717;47.324;8.788;2023-01-09T08:50:31;2.47;;;1.53;;
50815;SDS011;39717;47.324;8.788;2023-01-09T08:52:57;2.03;;;1.13;;
50815;SDS011;39717;47.324;8.788;2023-01-09T08:55:23;1.10;;;1.00;;
50815;SDS011;39717;47.324;8.788;2023-01-09T08:57:50;1.23;;;0.83;;
50815;SDS011;39717;47.324;8.788;2023-01-09T09:00:17;0.67;;;0.67;;
50815;SDS011;39717;47.324;8.788;2023-01-09T09:02:44;0.87;;;0.87;;
50815;SDS011;39717;47.324;8.788;2023-01-09T09:05:10;1.43;;;0.80;;
50815;SDS011;39717;47.324;8.788;2023-01-09T09:07:36;0.67;;;0.67;;
50815;SDS011;39717;47.324;8.788;2023-01-09T09:10:02;1.10;;;0.50;;
50815;SDS011;39717;47.324;8.788;2023-01-09T09:12:28;1.60;;;0.80;;
50815;SDS011;39717;47.324;8.788;2023-01-09T09:14:54;1.53;;;1.03;;
50815;SDS011;39717;47.324;8.788;2023-01-09T09:17:41;1.53;;;0.87;;
50815;SDS011;39717;47.324;8.788;2023-01-09T09:20:08;1.23;;;1.00;;
50815;SDS011;39717;47.324;8.788;2023-01-09T09:22:34;1.23;;;0.80;;
50815;SDS011;39717;47.324;8.788;2023-01-09T09:25:01;1.73;;;0.70;;
50815;SDS011;39717;47.324;8.788;2023-01-09T09:27:29;1.20;;;0.60;;
50815;SDS011;39717;47.324;8.788;2023-01-09T09:29:56;0.70;;;0.70;;
50815;SDS011;39717;47.324;8.788;2023-01-09T09:32:22;0.80;;;0.60;;
50815;SDS011;39717;47.324;8.788;2023-01-09T09:34:48;0.60;;;0.60;;
50815;SDS011;39717;47.324;8.788;2023-01-09T09:37:14;0.70;;;0.70;;
50815;SDS011;39717;47.324;8.788;2023-01-09T09:39:40;0.53;;;0.53;;
50815;SDS011;39717;47.324;8.788;2023-01-09T09:45:12;2.77;;;0.90;;
50815;SDS011;39717;47.324;8.788;2023-01-09T09:52:51;0.87;;;0.77;;
50815;SDS011;39717;47.324;8.788;2023-01-09T09:55:34;2.40;;;0.80;;
50815;SDS011;39717;47.324;8.788;2023-01-09T09:58:03;2.30;;;0.73;;
50815;SDS011;39717;47.324;8.788;2023-01-09T10:00:31;1.13;;;0.90;;
50815;SDS011;39717;47.324;8.788;2023-01-09T10:03:10;0.60;;;0.60;;
50815;SDS011;39717;47.324;8.788;2023-01-09T10:05:41;1.00;;;0.80;;
50815;SDS011;39717;47.324;8.788;2023-01-09T10:08:12;0.80;;;0.70;;
50815;SDS011;39717;47.324;8.788;2023-01-09T10:10:45;0.70;;;0.70;;
50815;SDS011;39717;47.324;8.788;2023-01-09T10:13:15;1.03;;;0.70;;
50815;SDS011;39717;47.324;8.788;2023-01-09T10:16:06;2.03;;;1.00;;
50815;SDS011;39717;47.324;8.788;2023-01-09T10:18:45;2.67;;;1.10;;
50815;SDS011;39717;47.324;8.788;2023-01-09T10:21:26;0.93;;;0.70;;
50815;SDS011;39717;47.324;8.788;2023-01-09T10:26:36;1.77;;;1.10;;
50815;SDS011;39717;47.324;8.788;2023-01-09T10:37:39;1.83;;;1.00;;
50815;SDS011;39717;47.324;8.788;2023-01-09T10:40:13;0.83;;;0.73;;
50815;SDS011;39717;47.324;8.788;2023-01-09T10:45:44;0.87;;;0.80;;
50815;SDS011;39717;47.324;8.788;2023-01-09T10:51:19;1.13;;;0.60;;
50815;SDS011;39717;47.324;8.788;2023-01-09T10:53:50;0.67;;;0.67;;
50815;SDS011;39717;47.324;8.788;2023-01-09T10:58:49;0.60;;;0.60;;
50815;SDS011;39717;47.324;8.788;2023-01-09T11:01:25;2.17;;;0.60;;
50815;SDS011;39717;47.324;8.788;2023-01-09T11:03:52;1.30;;;0.73;;
50815;SDS011;39717;47.324;8.788;2023-01-09T11:06:21;0.70;;;0.67;;
50815;SDS011;39717;47.324;8.788;2023-01-09T11:08:50;0.40;;;0.40;;
50815;SDS011;39717;47.324;8.788;2023-01-09T11:11:39;0.57;;;0.57;;
50815;SDS011;39717;47.324;8.788;2023-01-09T11:14:09;0.60;;;0.60;;
50815;SDS011;39717;47.324;8.788;2023-01-09T11:16:49;0.47;;;0.47;;
50815;SDS011;39717;47.324;8.788;2023-01-09T11:19:15;1.17;;;1.07;;
50815;SDS011;39717;47.324;8.788;2023-01-09T11:21:41;1.27;;;0.80;;
50815;SDS011;39717;47.324;8.788;2023-01-09T11:26:40;0.60;;;0.60;;
50815;SDS011;39717;47.324;8.788;2023-01-09T11:29:13;1.60;;;0.50;;
50815;SDS011;39717;47.324;8.788;2023-01-09T11:31:40;1.00;;;0.60;;
50815;SDS011;39717;47.324;8.788;2023-01-09T11:36:52;1.00;;;0.90;;
50815;SDS011;39717;47.324;8.788;2023-01-09T11:39:25;1.00;;;0.90;;
50815;SDS011;39717;47.324;8.788;2023-01-09T11:41:53;1.60;;;0.70;;
50815;SDS011;39717;47.324;8.788;2023-01-09T11:44:21;1.47;;;0.70;;
50815;SDS011;39717;47.324;8.788;2023-01-09T11:46:47;1.13;;;0.87;;
50815;SDS011;39717;47.324;8.788;2023-01-09T11:51:40;0.63;;;0.63;;
50815;SDS011;39717;47.324;8.788;2023-01-09T11:56:51;1.40;;;0.57;;
50815;SDS011;39717;47.324;8.788;2023-01-09T11:59:21;1.00;;;0.60;;
50815;SDS011;39717;47.324;8.788;2023-01-09T12:04:49;2.20;;;0.80;;
50815;SDS011;39717;47.324;8.788;2023-01-09T12:10:57;0.90;;;0.90;;
50815;SDS011;39717;47.324;8.788;2023-01-09T12:12:53;1.17;;;0.97;;
50815;SDS011;39717;47.324;8.788;2023-01-09T12:15:37;1.63;;;0.90;;
50815;SDS011;39717;47.324;8.788;2023-01-09T12:20:35;2.03;;;0.50;;
50815;SDS011;39717;47.324;8.788;2023-01-09T12:23:08;0.70;;;0.57;;
50815;SDS011;39717;47.324;8.788;2023-01-09T12:26:40;0.97;;;0.70;;
50815;SDS011;39717;47.324;8.788;2023-01-09T12:43:55;3.13;;;0.80;;
50815;SDS011;39717;47.324;8.788;2023-01-09T12:46:24;1.07;;;0.53;;
50815;SDS011;39717;47.324;8.788;2023-01-09T12:51:30;0.40;;;0.40;;
50815;SDS011;39717;47.324;8.788;2023-01-09T12:54:01;1.60;;;0.73;;
50815;SDS011;39717;47.324;8.788;2023-01-09T12:56:30;3.07;;;0.67;;
50815;SDS011;39717;47.324;8.788;2023-01-09T12:58:59;3.10;;;0.70;;
50815;SDS011;39717;47.324;8.788;2023-01-09T13:01:31;0.80;;;0.70;;
50815;SDS011;39717;47.324;8.788;2023-01-09T13:04:18;1.53;;;1.13;;
50815;SDS011;39717;47.324;8.788;2023-01-09T13:06:49;0.70;;;0.43;;
50815;SDS011;39717;47.324;8.788;2023-01-09T13:09:26;0.37;;;0.37;;
50815;SDS011;39717;47.324;8.788;2023-01-09T13:11:57;0.20;;;0.20;;
50815;SDS011;39717;47.324;8.788;2023-01-09T13:17:19;2.37;;;0.70;;
50815;SDS011;39717;47.324;8.788;2023-01-09T13:19:46;4.13;;;0.77;;
50815;SDS011;39717;47.324;8.788;2023-01-09T13:22:12;0.30;;;0.30;;
50815;SDS011;39717;47.324;8.788;2023-01-09T13:27:24;0.60;;;0.60;;
50815;SDS011;39717;47.324;8.788;2023-01-09T13:29:59;2.33;;;0.50;;
50815;SDS011;39717;47.324;8.788;2023-01-09T13:34:54;1.80;;;1.00;;
50815;SDS011;39717;47.324;8.788;2023-01-09T13:37:32;0.90;;;0.53;;
50815;SDS011;39717;47.324;8.788;2023-01-09T13:40:00;0.97;;;0.90;;
50815;SDS011;39717;47.324;8.788;2023-01-09T13:42:26;1.77;;;0.80;;
50815;SDS011;39717;47.324;8.788;2023-01-09T13:45:07;1.77;;;0.70;;
50815;SDS011;39717;47.324;8.788;2023-01-09T13:47:34;0.30;;;0.30;;
50815;SDS011;39717;47.324;8.788;2023-01-09T13:50:20;1.10;;;0.63;;
50815;SDS011;39717;47.324;8.788;2023-01-09T13:52:46;3.00;;;0.73;;
50815;SDS011;39717;47.324;8.788;2023-01-09T14:05:14;1.37;;;0.60;;
50815;SDS011;39717;47.324;8.788;2023-01-09T14:07:50;1.33;;;0.60;;
50815;SDS011;39717;47.324;8.788;2023-01-09T14:12:46;0.80;;;0.70;;
50815;SDS011;39717;47.324;8.788;2023-01-09T14:15:59;0.40;;;0.40;;
50815;SDS011;39717;47.324;8.788;2023-01-09T14:18:09;3.13;;;0.50;;
50815;SDS011;39717;47.324;8.788;2023-01-09T14:20:51;1.23;;;0.70;;
50815;SDS011;39717;47.324;8.788;2023-01-09T14:23:22;1.63;;;0.80;;
50815;SDS011;39717;47.324;8.788;2023-01-09T14:25:52;0.90;;;0.53;;
50815;SDS011;39717;47.324;8.788;2023-01-09T14:28:20;0.50;;;0.50;;
50815;SDS011;39717;47.324;8.788;2023-01-09T14:36:10;1.23;;;0.80;;
50815;SDS011;39717;47.324;8.788;2023-01-09T14:38:47;1.70;;;0.60;;
50815;SDS011;39717;47.324;8.788;2023-01-09T14:41:16;1.43;;;0.70;;
50815;SDS011;39717;47.324;8.788;2023-01-09T14:44:43;1.67;;;0.80;;
50815;SDS011;39717;47.324;8.788;2023-01-09T14:47:17;0.80;;;0.70;;
50815;SDS011;39717;47.324;8.788;2023-01-09T14:52:52;2.87;;;0.63;;
50815;SDS011;39717;47.324;8.788;2023-01-09T14:58:23;2.53;;;1.20;;
50815;SDS011;39717;47.324;8.788;2023-01-09T15:03:31;0.80;;;0.80;;
50815;SDS011;39717;47.324;8.788;2023-01-09T15:06:09;2.27;;;0.80;;
50815;SDS011;39717;47.324;8.788;2023-01-09T15:08:40;1.50;;;0.30;;
50815;SDS011;39717;47.324;8.788;2023-01-09T15:11:10;0.60;;;0.60;;
50815;SDS011;39717;47.324;8.788;2023-01-09T15:13:41;0.80;;;0.50;;
50815;SDS011;39717;47.324;8.788;2023-01-09T15:16:13;0.87;;;0.50;;
50815;SDS011;39717;47.324;8.788;2023-01-09T15:18:41;0.60;;;0.50;;
50815;SDS011;39717;47.324;8.788;2023-01-09T15:21:10;1.13;;;0.60;;
50815;SDS011;39717;47.324;8.788;2023-01-09T15:23:40;0.53;;;0.53;;
50815;SDS011;39717;47.324;8.788;2023-01-09T15:26:39;1.17;;;0.70;;
50815;SDS011;39717;47.324;8.788;2023-01-09T15:29:14;0.90;;;0.50;;
50815;SDS011;39717;47.324;8.788;2023-01-09T15:31:42;2.07;;;0.87;;
50815;SDS011;39717;47.324;8.788;2023-01-09T15:34:10;1.77;;;0.67;;
50815;SDS011;39717;47.324;8.788;2023-01-09T15:36:40;1.37;;;0.90;;
50815;SDS011;39717;47.324;8.788;2023-01-09T15:39:06;2.10;;;0.70;;
50815;SDS011;39717;47.324;8.788;2023-01-09T15:41:32;2.10;;;0.50;;
50815;SDS011;39717;47.324;8.788;2023-01-09T15:44:18;1.60;;;0.87;;
50815;SDS011;39717;47.324;8.788;2023-01-09T15:46:46;0.63;;;0.53;;
50815;SDS011;39717;47.324;8.788;2023-01-09T15:49:14;1.10;;;0.50;;
50815;SDS011;39717;47.324;8.788;2023-01-09T15:51:42;5.33;;;1.13;;
50815;SDS011;39717;47.324;8.788;2023-01-09T15:54:13;0.63;;;0.57;;
50815;SDS011;39717;47.324;8.788;2023-01-09T15:56:39;1.43;;;0.93;;
50815;SDS011;39717;47.324;8.788;2023-01-09T16:02:03;2.17;;;0.70;;
50815;SDS011;39717;47.324;8.788;2023-01-09T16:04:49;1.53;;;0.57;;
50815;SDS011;39717;47.324;8.788;2023-01-09T16:07:17;0.87;;;0.60;;
50815;SDS011;39717;47.324;8.788;2023-01-09T16:09:44;0.60;;;0.60;;
50815;SDS011;39717;47.324;8.788;2023-01-09T16:12:17;0.60;;;0.60;;
50815;SDS011;39717;47.324;8.788;2023-01-09T16:14:46;1.03;;;0.80;;
50815;SDS011;39717;47.324;8.788;2023-01-09T16:17:14;1.97;;;0.70;;
50815;SDS011;39717;47.324;8.788;2023-01-09T16:22:28;2.33;;;0.63;;
50815;SDS011;39717;47.324;8.788;2023-01-09T16:25:01;1.67;;;0.70;;
50815;SDS011;39717;47.324;8.788;2023-01-09T16:29:55;0.70;;;0.63;;
50815;SDS011;39717;47.324;8.788;2023-01-09T16:32:33;1.40;;;0.70;;
50815;SDS011;39717;47.324;8.788;2023-01-09T16:35:01;0.93;;;0.93;;
50815;SDS011;39717;47.324;8.788;2023-01-09T16:37:29;3.73;;;2.10;;
50815;SDS011;39717;47.324;8.788;2023-01-09T16:42:25;1.03;;;0.70;;
50815;SDS011;39717;47.324;8.788;2023-01-09T16:45:10;0.43;;;0.43;;
50815;SDS011;39717;47.324;8.788;2023-01-09T16:47:36;1.90;;;0.60;;
50815;SDS011;39717;47.324;8.788;2023-01-09T16:50:02;1.17;;;0.73;;
50815;SDS011;39717;47.324;8.788;2023-01-09T16:52:28;0.70;;;0.70;;
50815;SDS011;39717;47.324;8.788;2023-01-09T16:54:54;0.70;;;0.50;;
50815;SDS011;39717;47.324;8.788;2023-01-09T16:57:20;0.93;;;0.80;;
50815;SDS011;39717;47.324;8.788;2023-01-09T16:59:46;1.00;;;1.00;;
50815;SDS011;39717;47.324;8.788;2023-01-09T17:02:17;0.53;;;0.53;;
50815;SDS011;39717;47.324;8.788;2023-01-09T17:04:43;2.23;;;0.70;;
50815;SDS011;39717;47.324;8.788;2023-01-09T17:07:13;0.57;;;0.57;;
50815;SDS011;39717;47.324;8.788;2023-01-09T17:09:40;0.60;;;0.60;;
50815;SDS011;39717;47.324;8.788;2023-01-09T17:12:11;0.57;;;0.57;;